sensor_id;sensor_type;location;lat;lon;timestamp;temperature;humidity
2112;DHT22;1062;52.538;13.400;2024-01-16T00:01:20;0.10;99.90
2112;DHT22;1062;52.538;13.400;2024-01-16T00:03:46;0.10;99.90
2112;DHT22;1062;52.538;13.400;2024-01-16T00:06:12;0.10;99.90
2112;DHT22;1062;52.538;13.400;2024-01-16T00:08:37;-0.10;99.90
2112;DHT22;1062;52.538;13.400;2024-01-16T00:11:03;0.00;99.90
2112;DHT22;1062;52.538;13.400;2024-01-16T00:13:29;0.00;99.90
2112;DHT22;1062;52.538;13.400;2024-01-16T00:15:55;0.10;99.90
2112;DHT22;1062;52.538;13.400;2024-01-16T00:18:22;0.00;99.90
2112;DHT22;1062;52.538;13.400;2024-01-16T00:20:49;-0.10;99.90
2112;DHT22;1062;52.538;13.400;2024-01-16T00:23:14;-0.20;99.90
2112;DHT22;1062;52.538;13.400;2024-01-16T00:25:40;-0.10;99.90
2112;DHT22;1062;52.538;13.400;2024-01-16T00:28:06;-0.10;99.90
2112;DHT22;1062;52.538;13.400;2024-01-16T00:30:32;-0.20;99.90
2112;DHT22;1062;52.538;13.400;2024-01-16T00:32:59;-0.20;99.90
2112;DHT22;1062;52.538;13.400;2024-01-16T00:35:24;-0.20;99.90
2112;DHT22;1062;52.538;13.400;2024-01-16T00:37:50;-0.20;99.90
2112;DHT22;1062;52.538;13.400;2024-01-16T00:40:16;-0.20;99.90
2112;DHT22;1062;52.538;13.400;2024-01-16T00:42:41;-0.30;99.90
2112;DHT22;1062;52.538;13.400;2024-01-16T00:45:07;-0.40;99.90
2112;DHT22;1062;52.538;13.400;2024-01-16T00:47:32;-0.60;99.90
2112;DHT22;1062;52.538;13.400;2024-01-16T00:49:58;-0.70;99.90
2112;DHT22;1062;52.538;13.400;2024-01-16T00:52:26;-0.80;99.90
2112;DHT22;1062;52.538;13.400;2024-01-16T00:54:51;-0.90;99.90
2112;DHT22;1062;52.538;13.400;2024-01-16T00:57:17;-1.00;99.90
2112;DHT22;1062;52.538;13.400;2024-01-16T00:59:45;-1.00;99.90
2112;DHT22;1062;52.538;13.400;2024-01-16T01:02:11;-1.00;99.90
2112;DHT22;1062;52.538;13.400;2024-01-16T01:04:37;-1.10;99.90
2112;DHT22;1062;52.538;13.400;2024-01-16T01:07:03;-1.10;99.90
2112;DHT22;1062;52.538;13.400;2024-01-16T01:09:28;-1.20;99.90
2112;DHT22;1062;52.538;13.400;2024-01-16T01:11:54;-1.20;99.90
2112;DHT22;1062;52.538;13.400;2024-01-16T01:14:20;-1.20;99.90
2112;DHT22;1062;52.538;13.400;2024-01-16T01:16:45;-1.20;99.90
2112;DHT22;1062;52.538;13.400;2024-01-16T01:19:11;-1.20;99.90
2112;DHT22;1062;52.538;13.400;2024-01-16T01:21:38;-1.20;99.90
2112;DHT22;1062;52.538;13.400;2024-01-16T01:24:03;-1.10;99.90
2112;DHT22;1062;52.538;13.400;2024-01-16T01:26:29;-1.00;99.90
2112;DHT22;1062;52.538;13.400;2024-01-16T01:28:54;-1.00;99.90
2112;DHT22;1062;52.538;13.400;2024-01-16T01:31:20;-1.00;99.90
2112;DHT22;1062;52.538;13.400;2024-01-16T01:33:45;-1.00;99.90
2112;DHT22;1062;52.538;13.400;2024-01-16T01:36:11;-1.00;99.90
2112;DHT22;1062;52.538;13.400;2024-01-16T01:38:37;-1.00;99.90
2112;DHT22;1062;52.538;13.400;2024-01-16T01:41:02;-1.10;99.90
2112;DHT22;1062;52.538;13.400;2024-01-16T01:43:28;-1.10;99.90
2112;DHT22;1062;52.538;13.400;2024-01-16T01:46:16;-1.10;99.90
2112;DHT22;1062;52.538;13.400;2024-01-16T01:48:43;-1.10;99.90
2112;DHT22;1062;52.538;13.400;2024-01-16T01:51:13;-1.10;99.90
2112;DHT22;1062;52.538;13.400;2024-01-16T01:53:39;-1.10;99.90
2112;DHT22;1062;52.538;13.400;2024-01-16T01:56:10;-1.10;99.90
2112;DHT22;1062;52.538;13.400;2024-01-16T01:58:37;-1.10;99.90
2112;DHT22;1062;52.538;13.400;2024-01-16T02:01:04;-1.10;99.90
2112;DHT22;1062;52.538;13.400;2024-01-16T02:03:36;-1.00;99.90
2112;DHT22;1062;52.538;13.400;2024-01-16T02:06:04;-1.00;99.90
2112;DHT22;1062;52.538;13.400;2024-01-16T02:08:31;-1.00;99.90
2112;DHT22;1062;52.538;13.400;2024-01-16T02:10:57;-1.00;99.90
2112;DHT22;1062;52.538;13.400;2024-01-16T02:13:22;-1.00;99.90
2112;DHT22;1062;52.538;13.400;2024-01-16T02:15:49;-1.00;99.90
2112;DHT22;1062;52.538;13.400;2024-01-16T02:18:16;-1.00;99.90
2112;DHT22;1062;52.538;13.400;2024-01-16T02:20:42;-1.00;99.90
2112;DHT22;1062;52.538;13.400;2024-01-16T02:23:10;-1.00;99.90
2112;DHT22;1062;52.538;13.400;2024-01-16T02:25:37;-1.00;99.90
2112;DHT22;1062;52.538;13.400;2024-01-16T02:28:02;-1.10;99.90
2112;DHT22;1062;52.538;13.400;2024-01-16T02:30:28;-1.10;99.90
2112;DHT22;1062;52.538;13.400;2024-01-16T02:32:54;-1.00;99.90
2112;DHT22;1062;52.538;13.400;2024-01-16T02:35:19;-1.00;99.90
2112;DHT22;1062;52.538;13.400;2024-01-16T02:37:45;-1.00;99.90
2112;DHT22;1062;52.538;13.400;2024-01-16T02:40:11;-1.00;99.90
2112;DHT22;1062;52.538;13.400;2024-01-16T02:42:36;-1.00;99.90
2112;DHT22;1062;52.538;13.400;2024-01-16T02:45:04;-1.10;99.90
2112;DHT22;1062;52.538;13.400;2024-01-16T02:47:30;-1.20;99.90
2112;DHT22;1062;52.538;13.400;2024-01-16T02:49:55;-1.30;99.90
2112;DHT22;1062;52.538;13.400;2024-01-16T02:52:21;-1.40;99.90
2112;DHT22;1062;52.538;13.400;2024-01-16T02:54:46;-1.50;99.90
2112;DHT22;1062;52.538;13.400;2024-01-16T02:57:12;-1.50;99.90
2112;DHT22;1062;52.538;13.400;2024-01-16T02:59:38;-1.60;99.90
2112;DHT22;1062;52.538;13.400;2024-01-16T03:02:03;-1.70;99.90
2112;DHT22;1062;52.538;13.400;2024-01-16T03:04:29;-1.70;99.90
2112;DHT22;1062;52.538;13.400;2024-01-16T03:06:55;-1.80;99.90
2112;DHT22;1062;52.538;13.400;2024-01-16T03:09:21;-1.80;99.90
2112;DHT22;1062;52.538;13.400;2024-01-16T03:11:47;-1.80;99.90
2112;DHT22;1062;52.538;13.400;2024-01-16T03:14:13;-1.80;99.90
2112;DHT22;1062;52.538;13.400;2024-01-16T03:16:43;-1.80;99.90
2112;DHT22;1062;52.538;13.400;2024-01-16T03:19:09;-1.80;99.90
2112;DHT22;1062;52.538;13.400;2024-01-16T03:21:35;-1.70;99.90
2112;DHT22;1062;52.538;13.400;2024-01-16T03:24:01;-1.70;99.90
2112;DHT22;1062;52.538;13.400;2024-01-16T03:26:26;-1.60;99.90
2112;DHT22;1062;52.538;13.400;2024-01-16T03:28:52;-1.60;99.90
2112;DHT22;1062;52.538;13.400;2024-01-16T03:31:17;-1.50;99.90
2112;DHT22;1062;52.538;13.400;2024-01-16T03:33:46;-1.50;99.90
2112;DHT22;1062;52.538;13.400;2024-01-16T03:36:12;-1.50;99.90
2112;DHT22;1062;52.538;13.400;2024-01-16T03:38:39;-1.40;99.90
2112;DHT22;1062;52.538;13.400;2024-01-16T03:41:05;-1.30;99.90
2112;DHT22;1062;52.538;13.400;2024-01-16T03:43:33;-1.40;99.90
2112;DHT22;1062;52.538;13.400;2024-01-16T03:45:59;-1.40;99.90
2112;DHT22;1062;52.538;13.400;2024-01-16T03:48:25;-1.40;99.90
2112;DHT22;1062;52.538;13.400;2024-01-16T03:50:51;-1.30;99.90
2112;DHT22;1062;52.538;13.400;2024-01-16T03:53:17;-1.30;99.90
2112;DHT22;1062;52.538;13.400;2024-01-16T03:55:42;-1.20;99.90
2112;DHT22;1062;52.538;13.400;2024-01-16T03:58:08;-1.10;99.90
2112;DHT22;1062;52.538;13.400;2024-01-16T04:00:33;-1.20;99.90
2112;DHT22;1062;52.538;13.400;2024-01-16T04:02:59;-1.10;99.90
2112;DHT22;1062;52.538;13.400;2024-01-16T04:05:24;-1.10;99.90
2112;DHT22;1062;52.538;13.400;2024-01-16T04:07:50;-1.10;99.90
2112;DHT22;1062;52.538;13.400;2024-01-16T04:10:16;-1.10;99.90
2112;DHT22;1062;52.538;13.400;2024-01-16T04:12:42;-1.00;99.90
2112;DHT22;1062;52.538;13.400;2024-01-16T04:15:07;-1.00;99.90
2112;DHT22;1062;52.538;13.400;2024-01-16T04:17:33;-1.10;99.90
2112;DHT22;1062;52.538;13.400;2024-01-16T04:19:59;-1.10;99.90
2112;DHT22;1062;52.538;13.400;2024-01-16T04:22:24;-1.20;99.90
2112;DHT22;1062;52.538;13.400;2024-01-16T04:24:50;-1.20;99.90
2112;DHT22;1062;52.538;13.400;2024-01-16T04:27:15;-1.20;99.90
2112;DHT22;1062;52.538;13.400;2024-01-16T04:29:41;-1.20;99.90
2112;DHT22;1062;52.538;13.400;2024-01-16T04:32:07;-1.20;99.90
2112;DHT22;1062;52.538;13.400;2024-01-16T04:34:33;-1.10;99.90
2112;DHT22;1062;52.538;13.400;2024-01-16T04:36:59;-1.10;99.90
2112;DHT22;1062;52.538;13.400;2024-01-16T04:39:25;-1.30;99.90
2112;DHT22;1062;52.538;13.400;2024-01-16T04:41:50;-1.30;99.90
2112;DHT22;1062;52.538;13.400;2024-01-16T04:44:16;-1.30;99.90
2112;DHT22;1062;52.538;13.400;2024-01-16T04:46:42;-1.30;99.90
2112;DHT22;1062;52.538;13.400;2024-01-16T04:49:08;-1.20;99.90
2112;DHT22;1062;52.538;13.400;2024-01-16T04:51:34;-1.30;99.90
2112;DHT22;1062;52.538;13.400;2024-01-16T04:53:59;-1.20;99.90
2112;DHT22;1062;52.538;13.400;2024-01-16T04:56:25;-1.30;99.90
2112;DHT22;1062;52.538;13.400;2024-01-16T04:58:51;-1.30;99.90
2112;DHT22;1062;52.538;13.400;2024-01-16T05:01:17;-1.30;99.90
2112;DHT22;1062;52.538;13.400;2024-01-16T05:03:43;-1.30;99.90
2112;DHT22;1062;52.538;13.400;2024-01-16T05:06:15;-1.30;99.90
2112;DHT22;1062;52.538;13.400;2024-01-16T05:08:41;-1.30;99.90
2112;DHT22;1062;52.538;13.400;2024-01-16T05:11:07;-1.30;99.90
2112;DHT22;1062;52.538;13.400;2024-01-16T05:13:33;-1.30;99.90
2112;DHT22;1062;52.538;13.400;2024-01-16T05:15:59;-1.30;99.90
2112;DHT22;1062;52.538;13.400;2024-01-16T05:18:24;-1.40;99.90
2112;DHT22;1062;52.538;13.400;2024-01-16T05:20:50;-1.40;99.90
2112;DHT22;1062;52.538;13.400;2024-01-16T05:23:15;-1.40;99.90
2112;DHT22;1062;52.538;13.400;2024-01-16T05:25:41;-1.40;99.90
2112;DHT22;1062;52.538;13.400;2024-01-16T05:28:07;-1.30;99.90
2112;DHT22;1062;52.538;13.400;2024-01-16T05:30:32;-1.30;99.90
2112;DHT22;1062;52.538;13.400;2024-01-16T05:32:59;-1.40;99.90
2112;DHT22;1062;52.538;13.400;2024-01-16T05:35:27;-1.30;99.90
2112;DHT22;1062;52.538;13.400;2024-01-16T05:37:53;-1.40;99.90
2112;DHT22;1062;52.538;13.400;2024-01-16T05:40:19;-1.50;99.90
2112;DHT22;1062;52.538;13.400;2024-01-16T05:42:44;-1.50;99.90
2112;DHT22;1062;52.538;13.400;2024-01-16T05:45:11;-1.60;99.90
2112;DHT22;1062;52.538;13.400;2024-01-16T05:47:36;-1.60;99.90
2112;DHT22;1062;52.538;13.400;2024-01-16T05:50:02;-1.60;99.90
2112;DHT22;1062;52.538;13.400;2024-01-16T05:52:28;-1.60;99.90
2112;DHT22;1062;52.538;13.400;2024-01-16T05:54:53;-1.70;99.90
2112;DHT22;1062;52.538;13.400;2024-01-16T05:57:23;-1.70;99.90
2112;DHT22;1062;52.538;13.400;2024-01-16T05:59:48;-1.70;99.90
2112;DHT22;1062;52.538;13.400;2024-01-16T06:02:14;-1.60;99.90
2112;DHT22;1062;52.538;13.400;2024-01-16T06:04:40;-1.70;99.90
2112;DHT22;1062;52.538;13.400;2024-01-16T06:07:05;-1.80;99.90
2112;DHT22;1062;52.538;13.400;2024-01-16T06:09:38;-1.70;99.90
2112;DHT22;1062;52.538;13.400;2024-01-16T06:12:06;-1.80;99.90
2112;DHT22;1062;52.538;13.400;2024-01-16T06:14:32;-1.80;99.90
2112;DHT22;1062;52.538;13.400;2024-01-16T06:16:58;-1.80;99.90
2112;DHT22;1062;52.538;13.400;2024-01-16T06:19:24;-1.70;99.90
2112;DHT22;1062;52.538;13.400;2024-01-16T06:21:49;-1.70;99.90
2112;DHT22;1062;52.538;13.400;2024-01-16T06:24:15;-1.70;99.90
2112;DHT22;1062;52.538;13.400;2024-01-16T06:26:41;-1.70;99.90
2112;DHT22;1062;52.538;13.400;2024-01-16T06:29:07;-1.80;99.90
2112;DHT22;1062;52.538;13.400;2024-01-16T06:31:33;-1.80;99.90
2112;DHT22;1062;52.538;13.400;2024-01-16T06:33:59;-1.70;99.90
2112;DHT22;1062;52.538;13.400;2024-01-16T06:36:24;-1.70;99.90
2112;DHT22;1062;52.538;13.400;2024-01-16T06:38:50;-1.70;99.90
2112;DHT22;1062;52.538;13.400;2024-01-16T06:41:15;-1.70;99.90
2112;DHT22;1062;52.538;13.400;2024-01-16T06:43:41;-1.60;99.90
2112;DHT22;1062;52.538;13.400;2024-01-16T06:46:07;-1.60;99.90
2112;DHT22;1062;52.538;13.400;2024-01-16T06:48:35;-1.60;99.90
2112;DHT22;1062;52.538;13.400;2024-01-16T06:51:01;-1.60;99.90
2112;DHT22;1062;52.538;13.400;2024-01-16T06:53:26;-1.60;99.90
2112;DHT22;1062;52.538;13.400;2024-01-16T06:55:52;-1.70;99.90
2112;DHT22;1062;52.538;13.400;2024-01-16T06:58:17;-1.60;99.90
2112;DHT22;1062;52.538;13.400;2024-01-16T07:00:43;-1.60;99.90
2112;DHT22;1062;52.538;13.400;2024-01-16T07:03:08;-1.60;99.90
2112;DHT22;1062;52.538;13.400;2024-01-16T07:05:34;-1.50;99.90
2112;DHT22;1062;52.538;13.400;2024-01-16T07:08:00;-1.60;99.90
2112;DHT22;1062;52.538;13.400;2024-01-16T07:10:26;-1.50;99.90
2112;DHT22;1062;52.538;13.400;2024-01-16T07:12:51;-1.50;99.90
2112;DHT22;1062;52.538;13.400;2024-01-16T07:15:17;-1.40;99.90
2112;DHT22;1062;52.538;13.400;2024-01-16T07:17:43;-1.40;99.90
2112;DHT22;1062;52.538;13.400;2024-01-16T07:20:09;-1.30;99.90
2112;DHT22;1062;52.538;13.400;2024-01-16T07:22:37;-1.30;99.90
2112;DHT22;1062;52.538;13.400;2024-01-16T07:25:02;-1.40;99.90
2112;DHT22;1062;52.538;13.400;2024-01-16T07:27:28;-1.50;99.90
2112;DHT22;1062;52.538;13.400;2024-01-16T07:29:53;-1.40;99.90
2112;DHT22;1062;52.538;13.400;2024-01-16T07:32:19;-1.30;99.90
2112;DHT22;1062;52.538;13.400;2024-01-16T07:34:45;-1.20;99.90
2112;DHT22;1062;52.538;13.400;2024-01-16T07:37:10;-1.20;99.90
2112;DHT22;1062;52.538;13.400;2024-01-16T07:39:36;-1.30;99.90
2112;DHT22;1062;52.538;13.400;2024-01-16T07:42:01;-1.20;99.90
2112;DHT22;1062;52.538;13.400;2024-01-16T07:44:27;-1.00;99.90
2112;DHT22;1062;52.538;13.400;2024-01-16T07:46:52;-1.20;99.90
2112;DHT22;1062;52.538;13.400;2024-01-16T07:49:18;-1.20;99.90
2112;DHT22;1062;52.538;13.400;2024-01-16T07:51:44;-1.10;99.90
2112;DHT22;1062;52.538;13.400;2024-01-16T07:54:10;-1.10;99.90
2112;DHT22;1062;52.538;13.400;2024-01-16T07:56:36;-1.10;99.90
2112;DHT22;1062;52.538;13.400;2024-01-16T07:59:03;-0.90;99.90
2112;DHT22;1062;52.538;13.400;2024-01-16T08:01:29;-0.90;99.90
2112;DHT22;1062;52.538;13.400;2024-01-16T08:03:55;-0.90;99.90
2112;DHT22;1062;52.538;13.400;2024-01-16T08:06:21;-0.80;99.90
2112;DHT22;1062;52.538;13.400;2024-01-16T08:08:47;-0.70;99.90
2112;DHT22;1062;52.538;13.400;2024-01-16T08:11:14;-0.80;99.90
2112;DHT22;1062;52.538;13.400;2024-01-16T08:13:40;-0.80;99.90
2112;DHT22;1062;52.538;13.400;2024-01-16T08:16:06;-0.60;99.90
2112;DHT22;1062;52.538;13.400;2024-01-16T08:18:31;-0.50;99.90
2112;DHT22;1062;52.538;13.400;2024-01-16T08:20:57;-0.50;99.90
2112;DHT22;1062;52.538;13.400;2024-01-16T08:23:23;-0.50;99.90
2112;DHT22;1062;52.538;13.400;2024-01-16T08:25:49;-0.60;99.90
2112;DHT22;1062;52.538;13.400;2024-01-16T08:28:19;-0.60;99.90
2112;DHT22;1062;52.538;13.400;2024-01-16T08:30:45;-0.50;99.90
2112;DHT22;1062;52.538;13.400;2024-01-16T08:33:12;-0.50;99.90
2112;DHT22;1062;52.538;13.400;2024-01-16T08:35:38;-0.30;99.90
2112;DHT22;1062;52.538;13.400;2024-01-16T08:38:04;-0.30;99.90
2112;DHT22;1062;52.538;13.400;2024-01-16T08:40:30;-0.30;99.90
2112;DHT22;1062;52.538;13.400;2024-01-16T08:42:55;-0.30;99.90
2112;DHT22;1062;52.538;13.400;2024-01-16T08:45:21;-0.30;99.90
2112;DHT22;1062;52.538;13.400;2024-01-16T08:47:47;-0.20;99.90
2112;DHT22;1062;52.538;13.400;2024-01-16T08:50:13;-0.30;99.90
2112;DHT22;1062;52.538;13.400;2024-01-16T08:52:38;-0.30;99.90
2112;DHT22;1062;52.538;13.400;2024-01-16T08:55:05;-0.20;99.90
2112;DHT22;1062;52.538;13.400;2024-01-16T08:57:30;-0.10;99.90
2112;DHT22;1062;52.538;13.400;2024-01-16T08:59:56;-0.10;99.90
2112;DHT22;1062;52.538;13.400;2024-01-16T09:02:22;0.00;99.90
2112;DHT22;1062;52.538;13.400;2024-01-16T09:04:47;0.00;99.90
2112;DHT22;1062;52.538;13.400;2024-01-16T09:07:18;0.10;99.90
2112;DHT22;1062;52.538;13.400;2024-01-16T09:09:44;0.20;99.90
2112;DHT22;1062;52.538;13.400;2024-01-16T09:12:10;0.30;99.90
2112;DHT22;1062;52.538;13.400;2024-01-16T09:14:35;0.30;99.90
2112;DHT22;1062;52.538;13.400;2024-01-16T09:17:01;0.10;99.90
2112;DHT22;1062;52.538;13.400;2024-01-16T09:19:27;0.20;99.90
2112;DHT22;1062;52.538;13.400;2024-01-16T09:21:52;0.10;99.90
2112;DHT22;1062;52.538;13.400;2024-01-16T09:24:18;0.10;99.90
2112;DHT22;1062;52.538;13.400;2024-01-16T09:26:44;0.20;99.90
2112;DHT22;1062;52.538;13.400;2024-01-16T09:29:10;0.40;99.90
2112;DHT22;1062;52.538;13.400;2024-01-16T09:31:36;0.30;99.90
2112;DHT22;1062;52.538;13.400;2024-01-16T09:34:03;0.30;99.90
2112;DHT22;1062;52.538;13.400;2024-01-16T09:36:29;0.30;99.90
2112;DHT22;1062;52.538;13.400;2024-01-16T09:38:54;0.30;99.90
2112;DHT22;1062;52.538;13.400;2024-01-16T09:41:20;0.30;99.90
2112;DHT22;1062;52.538;13.400;2024-01-16T09:43:47;0.30;99.90
2112;DHT22;1062;52.538;13.400;2024-01-16T09:46:15;0.40;99.90
2112;DHT22;1062;52.538;13.400;2024-01-16T09:48:43;0.40;99.90
2112;DHT22;1062;52.538;13.400;2024-01-16T09:51:11;0.40;99.90
2112;DHT22;1062;52.538;13.400;2024-01-16T09:53:41;0.40;99.90
2112;DHT22;1062;52.538;13.400;2024-01-16T09:56:13;0.40;99.90
2112;DHT22;1062;52.538;13.400;2024-01-16T09:58:39;0.40;99.90
2112;DHT22;1062;52.538;13.400;2024-01-16T10:01:05;0.40;99.90
2112;DHT22;1062;52.538;13.400;2024-01-16T10:03:31;0.60;99.90
2112;DHT22;1062;52.538;13.400;2024-01-16T10:05:59;0.60;99.90
2112;DHT22;1062;52.538;13.400;2024-01-16T10:08:27;0.70;99.90
2112;DHT22;1062;52.538;13.400;2024-01-16T10:10:54;0.80;99.90
2112;DHT22;1062;52.538;13.400;2024-01-16T10:13:19;1.00;99.90
2112;DHT22;1062;52.538;13.400;2024-01-16T10:15:49;1.00;99.90
2112;DHT22;1062;52.538;13.400;2024-01-16T10:18:28;1.20;99.90
2112;DHT22;1062;52.538;13.400;2024-01-16T10:20:57;1.20;99.90
2112;DHT22;1062;52.538;13.400;2024-01-16T10:23:27;1.00;99.90
2112;DHT22;1062;52.538;13.400;2024-01-16T10:28:32;1.00;99.90
2112;DHT22;1062;52.538;13.400;2024-01-16T10:31:04;1.30;99.90
2112;DHT22;1062;52.538;13.400;2024-01-16T10:33:29;1.10;99.90
2112;DHT22;1062;52.538;13.400;2024-01-16T10:36:17;1.20;99.90
2112;DHT22;1062;52.538;13.400;2024-01-16T10:38:45;1.40;99.90
2112;DHT22;1062;52.538;13.400;2024-01-16T10:41:11;1.20;99.90
2112;DHT22;1062;52.538;13.400;2024-01-16T10:43:37;1.30;99.90
2112;DHT22;1062;52.538;13.400;2024-01-16T10:46:11;1.30;99.90
2112;DHT22;1062;52.538;13.400;2024-01-16T10:48:38;1.30;99.90
2112;DHT22;1062;52.538;13.400;2024-01-16T10:51:06;1.40;99.90
2112;DHT22;1062;52.538;13.400;2024-01-16T10:53:33;1.20;99.90
2112;DHT22;1062;52.538;13.400;2024-01-16T10:56:02;1.30;99.90
2112;DHT22;1062;52.538;13.400;2024-01-16T10:58:31;1.40;99.90
2112;DHT22;1062;52.538;13.400;2024-01-16T11:01:01;1.50;99.90
2112;DHT22;1062;52.538;13.400;2024-01-16T11:03:47;1.50;99.90
2112;DHT22;1062;52.538;13.400;2024-01-16T11:06:18;1.50;99.90
2112;DHT22;1062;52.538;13.400;2024-01-16T11:08:48;1.40;99.90
2112;DHT22;1062;52.538;13.400;2024-01-16T11:11:14;1.40;99.90
2112;DHT22;1062;52.538;13.400;2024-01-16T11:13:41;1.40;99.90
2112;DHT22;1062;52.538;13.400;2024-01-16T11:16:11;1.40;99.90
2112;DHT22;1062;52.538;13.400;2024-01-16T11:18:37;1.20;99.90
2112;DHT22;1062;52.538;13.400;2024-01-16T11:21:06;1.10;99.90
2112;DHT22;1062;52.538;13.400;2024-01-16T11:23:32;1.10;99.90
2112;DHT22;1062;52.538;13.400;2024-01-16T11:25:58;1.20;99.90
2112;DHT22;1062;52.538;13.400;2024-01-16T11:28:28;1.10;99.90
2112;DHT22;1062;52.538;13.400;2024-01-16T11:30:56;1.10;99.90
2112;DHT22;1062;52.538;13.400;2024-01-16T11:35:57;1.20;99.90
2112;DHT22;1062;52.538;13.400;2024-01-16T11:38:23;1.30;99.90
2112;DHT22;1062;52.538;13.400;2024-01-16T11:40:52;1.30;99.90
2112;DHT22;1062;52.538;13.400;2024-01-16T11:46:03;1.20;99.90
2112;DHT22;1062;52.538;13.400;2024-01-16T11:48:29;1.10;99.90
2112;DHT22;1062;52.538;13.400;2024-01-16T11:50:55;1.10;99.90
2112;DHT22;1062;52.538;13.400;2024-01-16T11:56:13;1.10;99.90
2112;DHT22;1062;52.538;13.400;2024-01-16T11:59:31;1.10;99.90
2112;DHT22;1062;52.538;13.400;2024-01-16T12:01:58;1.00;99.90
2112;DHT22;1062;52.538;13.400;2024-01-16T12:04:24;1.10;99.90
2112;DHT22;1062;52.538;13.400;2024-01-16T12:07:00;1.10;99.90
2112;DHT22;1062;52.538;13.400;2024-01-16T12:09:27;1.10;99.90
2112;DHT22;1062;52.538;13.400;2024-01-16T12:12:01;1.10;99.90
2112;DHT22;1062;52.538;13.400;2024-01-16T12:14:27;1.10;99.90
2112;DHT22;1062;52.538;13.400;2024-01-16T12:17:07;1.10;99.90
2112;DHT22;1062;52.538;13.400;2024-01-16T12:19:33;1.20;99.90
2112;DHT22;1062;52.538;13.400;2024-01-16T12:22:00;1.20;99.90
2112;DHT22;1062;52.538;13.400;2024-01-16T12:24:26;1.20;99.90
2112;DHT22;1062;52.538;13.400;2024-01-16T12:26:51;1.20;99.90
2112;DHT22;1062;52.538;13.400;2024-01-16T12:29:18;1.10;99.90
2112;DHT22;1062;52.538;13.400;2024-01-16T12:31:43;1.20;99.90
2112;DHT22;1062;52.538;13.400;2024-01-16T12:34:09;1.20;99.90
2112;DHT22;1062;52.538;13.400;2024-01-16T12:36:36;1.10;99.90
2112;DHT22;1062;52.538;13.400;2024-01-16T12:39:02;1.20;99.90
2112;DHT22;1062;52.538;13.400;2024-01-16T12:41:31;1.20;99.90
2112;DHT22;1062;52.538;13.400;2024-01-16T12:43:57;1.20;99.90
2112;DHT22;1062;52.538;13.400;2024-01-16T12:46:23;1.30;99.90
2112;DHT22;1062;52.538;13.400;2024-01-16T12:48:48;1.40;99.90
2112;DHT22;1062;52.538;13.400;2024-01-16T12:51:20;1.40;99.90
2112;DHT22;1062;52.538;13.400;2024-01-16T12:53:48;1.40;99.90
2112;DHT22;1062;52.538;13.400;2024-01-16T12:56:18;1.40;99.90
2112;DHT22;1062;52.538;13.400;2024-01-16T12:58:44;1.40;99.90
2112;DHT22;1062;52.538;13.400;2024-01-16T13:03:51;1.30;99.90
2112;DHT22;1062;52.538;13.400;2024-01-16T13:06:18;1.30;99.90
2112;DHT22;1062;52.538;13.400;2024-01-16T13:08:45;1.50;99.90
2112;DHT22;1062;52.538;13.400;2024-01-16T13:11:11;1.50;99.90
2112;DHT22;1062;52.538;13.400;2024-01-16T13:13:37;1.50;99.90
2112;DHT22;1062;52.538;13.400;2024-01-16T13:16:05;1.40;99.90
2112;DHT22;1062;52.538;13.400;2024-01-16T13:18:31;1.40;99.90
2112;DHT22;1062;52.538;13.400;2024-01-16T13:20:58;1.30;99.90
2112;DHT22;1062;52.538;13.400;2024-01-16T13:23:25;1.40;99.90
2112;DHT22;1062;52.538;13.400;2024-01-16T13:25:51;1.50;99.90
2112;DHT22;1062;52.538;13.400;2024-01-16T13:28:19;1.40;99.90
2112;DHT22;1062;52.538;13.400;2024-01-16T13:30:46;1.50;99.90
2112;DHT22;1062;52.538;13.400;2024-01-16T13:33:12;1.60;99.90
2112;DHT22;1062;52.538;13.400;2024-01-16T13:35:40;1.60;99.90
2112;DHT22;1062;52.538;13.400;2024-01-16T13:38:06;1.50;99.90
2112;DHT22;1062;52.538;13.400;2024-01-16T13:40:34;1.50;99.90
2112;DHT22;1062;52.538;13.400;2024-01-16T13:43:01;1.50;99.90
2112;DHT22;1062;52.538;13.400;2024-01-16T13:45:29;1.40;99.90
2112;DHT22;1062;52.538;13.400;2024-01-16T13:47:56;1.50;99.90
2112;DHT22;1062;52.538;13.400;2024-01-16T13:50:22;1.50;99.90
2112;DHT22;1062;52.538;13.400;2024-01-16T13:52:48;1.50;99.90
2112;DHT22;1062;52.538;13.400;2024-01-16T13:55:14;1.50;99.90
2112;DHT22;1062;52.538;13.400;2024-01-16T13:57:40;1.60;99.90
2112;DHT22;1062;52.538;13.400;2024-01-16T14:00:10;1.70;99.90
2112;DHT22;1062;52.538;13.400;2024-01-16T14:02:44;1.50;99.90
2112;DHT22;1062;52.538;13.400;2024-01-16T14:05:11;1.50;99.90
2112;DHT22;1062;52.538;13.400;2024-01-16T14:07:37;1.30;99.90
2112;DHT22;1062;52.538;13.400;2024-01-16T14:10:05;1.30;99.90
2112;DHT22;1062;52.538;13.400;2024-01-16T14:12:31;1.30;99.90
2112;DHT22;1062;52.538;13.400;2024-01-16T14:14:57;1.20;99.90
2112;DHT22;1062;52.538;13.400;2024-01-16T14:17:23;1.20;99.90
2112;DHT22;1062;52.538;13.400;2024-01-16T14:19:48;1.30;99.90
2112;DHT22;1062;52.538;13.400;2024-01-16T14:22:14;1.40;99.90
2112;DHT22;1062;52.538;13.400;2024-01-16T14:24:39;1.40;99.90
2112;DHT22;1062;52.538;13.400;2024-01-16T14:27:05;1.40;99.90
2112;DHT22;1062;52.538;13.400;2024-01-16T14:29:32;1.40;99.90
2112;DHT22;1062;52.538;13.400;2024-01-16T14:31:59;1.40;99.90
2112;DHT22;1062;52.538;13.400;2024-01-16T14:34:26;1.40;99.90
2112;DHT22;1062;52.538;13.400;2024-01-16T14:36:53;1.30;99.90
2112;DHT22;1062;52.538;13.400;2024-01-16T14:39:19;1.30;99.90
2112;DHT22;1062;52.538;13.400;2024-01-16T14:41:50;1.30;99.90
2112;DHT22;1062;52.538;13.400;2024-01-16T14:44:17;1.30;99.90
2112;DHT22;1062;52.538;13.400;2024-01-16T14:46:44;1.30;99.90
2112;DHT22;1062;52.538;13.400;2024-01-16T14:49:09;1.10;99.90
2112;DHT22;1062;52.538;13.400;2024-01-16T14:51:35;1.10;99.90
2112;DHT22;1062;52.538;13.400;2024-01-16T14:54:01;1.20;99.90
2112;DHT22;1062;52.538;13.400;2024-01-16T14:56:30;1.20;99.90
2112;DHT22;1062;52.538;13.400;2024-01-16T14:58:56;1.10;99.90
2112;DHT22;1062;52.538;13.400;2024-01-16T15:01:22;1.20;99.90
2112;DHT22;1062;52.538;13.400;2024-01-16T15:03:48;1.20;99.90
2112;DHT22;1062;52.538;13.400;2024-01-16T15:06:14;1.20;99.90
2112;DHT22;1062;52.538;13.400;2024-01-16T15:08:40;1.20;99.90
2112;DHT22;1062;52.538;13.400;2024-01-16T15:11:06;1.10;99.90
2112;DHT22;1062;52.538;13.400;2024-01-16T15:13:32;1.10;99.90
2112;DHT22;1062;52.538;13.400;2024-01-16T15:15:59;1.10;99.90
2112;DHT22;1062;52.538;13.400;2024-01-16T15:18:24;1.10;99.90
2112;DHT22;1062;52.538;13.400;2024-01-16T15:20:50;1.00;99.90
2112;DHT22;1062;52.538;13.400;2024-01-16T15:23:16;1.10;99.90
2112;DHT22;1062;52.538;13.400;2024-01-16T15:25:42;1.00;99.90
2112;DHT22;1062;52.538;13.400;2024-01-16T15:28:07;0.90;99.90
2112;DHT22;1062;52.538;13.400;2024-01-16T15:30:34;0.90;99.90
2112;DHT22;1062;52.538;13.400;2024-01-16T15:33:01;0.90;99.90
2112;DHT22;1062;52.538;13.400;2024-01-16T15:35:29;0.90;99.90
2112;DHT22;1062;52.538;13.400;2024-01-16T15:37:55;1.00;99.90
2112;DHT22;1062;52.538;13.400;2024-01-16T15:40:20;0.90;99.90
2112;DHT22;1062;52.538;13.400;2024-01-16T15:42:46;0.90;99.90
2112;DHT22;1062;52.538;13.400;2024-01-16T15:45:11;0.90;99.90
2112;DHT22;1062;52.538;13.400;2024-01-16T15:47:37;0.90;99.90
2112;DHT22;1062;52.538;13.400;2024-01-16T15:50:04;0.80;99.90
2112;DHT22;1062;52.538;13.400;2024-01-16T15:52:31;0.80;99.90
2112;DHT22;1062;52.538;13.400;2024-01-16T15:54:56;0.80;99.90
2112;DHT22;1062;52.538;13.400;2024-01-16T15:57:22;0.80;99.90
2112;DHT22;1062;52.538;13.400;2024-01-16T15:59:48;0.80;99.90
2112;DHT22;1062;52.538;13.400;2024-01-16T16:02:14;0.80;99.90